createdAt,value
2022-08-29T00:00:50.680Z,96288.50
2022-08-29T00:03:19.224Z,96290.78
2022-08-29T00:05:50.056Z,96251.84
2022-08-29T00:08:19.147Z,96273.75
2022-08-29T00:10:47.974Z,96270.03
2022-08-29T00:13:17.315Z,96278.47
2022-08-29T00:15:45.947Z,96275.72
2022-08-29T00:18:16.342Z,96275.06
2022-08-29T00:20:45.743Z,96283.00
2022-08-29T00:23:14.314Z,96295.31
2022-08-29T00:25:42.801Z,96305.69
2022-08-29T00:28:11.301Z,96281.34
2022-08-29T00:30:40.145Z,96282.00
2022-08-29T00:33:09.462Z,96285.59
2022-08-29T00:35:45.654Z,96287.38
2022-08-29T00:38:18.213Z,96272.59
2022-08-29T00:40:51.858Z,96279.72
2022-08-29T00:43:24.721Z,96288.31
2022-08-29T00:46:01.455Z,96274.19
2022-08-29T00:48:30.202Z,96284.28
2022-08-29T00:51:04.981Z,96291.06
2022-08-29T00:53:36.954Z,96294.47
2022-08-29T00:56:07.553Z,96259.44
2022-08-29T00:58:39.814Z,96275.66
2022-08-29T01:01:08.545Z,96280.03
2022-08-29T01:03:42.788Z,96273.22
2022-08-29T01:06:14.698Z,96257.47
2022-08-29T01:08:44.213Z,96263.97
2022-08-29T01:11:30.994Z,96267.22
2022-08-29T01:14:00.665Z,96273.34
2022-08-29T01:16:29.747Z,96244.31
2022-08-29T01:19:00.751Z,96279.53
2022-08-29T01:21:36.343Z,96265.91
2022-08-29T01:24:10.038Z,96282.47
2022-08-29T01:26:40.949Z,96281.97
2022-08-29T01:29:09.813Z,96287.47
2022-08-29T01:31:57.200Z,96270.41
2022-08-29T01:34:27.663Z,96278.53
2022-08-29T01:36:58.627Z,96216.03
2022-08-29T01:39:29.966Z,96285.22
2022-08-29T01:42:01.674Z,96291.06
2022-08-29T01:44:30.419Z,96287.47
2022-08-29T01:47:03.069Z,96289.75
2022-08-29T01:49:34.584Z,96266.56
2022-08-29T01:52:04.642Z,96275.19
2022-08-29T01:54:34.407Z,96281.34
2022-08-29T01:57:04.720Z,96292.00
2022-08-29T01:59:33.625Z,96268.31
2022-08-29T02:02:05.509Z,96288.63
2022-08-29T02:04:34.535Z,96285.88
2022-08-29T02:07:03.920Z,96287.63
2022-08-29T02:09:33.145Z,96296.69
2022-08-29T02:12:07.231Z,96285.69
2022-08-29T02:14:36.789Z,96289.41
2022-08-29T02:17:07.612Z,96289.72
2022-08-29T02:19:37.025Z,96301.75
2022-08-29T02:22:06.277Z,96296.06
2022-08-29T02:24:35.058Z,96271.56
2022-08-29T02:27:05.505Z,96289.06
2022-08-29T02:29:37.723Z,96288.41
2022-08-29T02:32:07.318Z,96304.81
2022-08-29T02:34:36.543Z,96302.69
2022-08-29T02:37:06.018Z,96299.78
2022-08-29T02:39:34.620Z,96285.97
2022-08-29T02:42:04.572Z,96301.75
2022-08-29T02:44:32.899Z,96298.00
2022-08-29T02:47:01.196Z,96262.66
2022-08-29T02:49:30.308Z,96300.59
2022-08-29T02:51:59.091Z,96300.75
2022-08-29T02:54:27.344Z,96293.97
2022-08-29T02:56:55.681Z,96266.50
2022-08-29T02:59:25.189Z,96303.69
2022-08-29T03:01:54.411Z,96303.84
2022-08-29T03:04:22.705Z,96305.13
2022-08-29T03:06:51.009Z,96300.09
2022-08-29T03:09:19.335Z,96299.16
2022-08-29T03:11:47.522Z,96304.81
2022-08-29T03:14:16.007Z,96300.28
2022-08-29T03:16:45.635Z,96302.72
2022-08-29T03:19:13.922Z,96297.53
2022-08-29T03:21:42.480Z,96304.69
2022-08-29T03:24:10.663Z,96309.81
2022-08-29T03:26:38.876Z,96310.78
2022-08-29T03:29:07.044Z,96311.72
2022-08-29T03:31:35.755Z,96315.31
2022-08-29T03:34:05.982Z,96307.53
2022-08-29T03:36:34.306Z,96307.84
2022-08-29T03:39:02.559Z,96307.69
2022-08-29T03:41:31.251Z,96309.31
2022-08-29T03:44:00.284Z,96306.03
2022-08-29T03:46:29.146Z,96301.84
2022-08-29T03:48:57.425Z,96308.47
2022-08-29T03:51:29.259Z,96301.38
2022-08-29T03:53:57.861Z,96302.19
2022-08-29T03:56:26.346Z,96291.13
2022-08-29T03:58:54.905Z,96281.53
2022-08-29T04:01:24.920Z,96316.47
2022-08-29T04:03:53.948Z,96294.84
2022-08-29T04:06:23.620Z,96314.00
2022-08-29T04:08:53.672Z,96325.50
2022-08-29T04:11:23.996Z,96297.91
2022-08-29T04:13:53.049Z,96333.63
2022-08-29T04:16:23.484Z,96329.69
2022-08-29T04:18:51.819Z,96330.81
2022-08-29T04:21:20.275Z,96345.41
2022-08-29T04:23:48.730Z,96342.16
2022-08-29T04:26:36.402Z,96345.06
2022-08-29T04:29:06.129Z,96348.31
2022-08-29T04:31:34.502Z,96350.75
2022-08-29T04:34:02.862Z,96354.63
2022-08-29T04:36:31.204Z,96357.56
2022-08-29T04:38:59.435Z,96331.28
2022-08-29T04:41:29.027Z,96358.06
2022-08-29T04:43:57.227Z,96368.44
2022-08-29T04:46:25.469Z,96378.81
2022-08-29T04:48:54.203Z,96382.22
2022-08-29T04:51:22.548Z,96377.19
2022-08-29T04:53:52.057Z,96381.41
2022-08-29T04:56:21.653Z,96388.56
2022-08-29T04:58:52.282Z,96392.63
2022-08-29T05:01:22.169Z,96379.38
2022-08-29T05:03:52.400Z,96385.19
2022-08-29T05:06:25.109Z,96363.91
2022-08-29T05:08:59.640Z,96384.06
2022-08-29T05:11:30.709Z,96378.22
2022-08-29T05:14:00.861Z,96383.09
2022-08-29T05:16:30.131Z,96385.69
2022-08-29T05:19:01.196Z,96389.28
2022-08-29T05:21:35.439Z,96391.88
2022-08-29T05:24:05.610Z,96385.41
2022-08-29T05:26:35.978Z,96390.91
2022-08-29T05:29:08.423Z,96385.41
2022-08-29T05:31:37.686Z,96385.75
2022-08-29T05:34:11.271Z,96355.22
2022-08-29T05:36:54.673Z,96383.16
2022-08-29T05:39:22.929Z,96372.94
2022-08-29T05:41:51.453Z,96392.75
2022-08-29T05:44:21.145Z,96370.69
2022-08-29T05:46:49.883Z,96380.91
2022-08-29T05:49:18.265Z,96374.94
2022-08-29T05:51:46.478Z,96380.47
2022-08-29T05:54:14.945Z,96388.41
2022-08-29T05:56:43.320Z,96365.84
2022-08-29T05:59:13.723Z,96386.97
2022-08-29T06:01:44.047Z,96397.84
2022-08-29T06:04:12.880Z,96396.75
2022-08-29T06:06:42.180Z,96391.09
2022-08-29T06:09:11.106Z,96391.88
2022-08-29T06:11:39.464Z,96395.28
2022-08-29T06:14:07.886Z,96390.09
2022-08-29T06:16:39.659Z,96389.94
2022-08-29T06:19:09.229Z,96402.28
2022-08-29T06:21:37.454Z,96398.88
2022-08-29T06:24:05.970Z,96411.69
2022-08-29T06:26:34.854Z,96414.91
2022-08-29T06:29:05.823Z,96405.34
2022-08-29T06:31:34.172Z,96419.94
2022-08-29T06:34:04.855Z,96423.19
2022-08-29T06:36:37.083Z,96426.13
2022-08-29T06:39:08.108Z,96382.91
2022-08-29T06:41:36.790Z,96414.44
2022-08-29T06:44:05.397Z,96419.00
2022-08-29T06:46:35.646Z,96428.75
2022-08-29T06:49:05.468Z,96426.50
2022-08-29T06:51:37.075Z,96423.22
2022-08-29T06:54:07.308Z,96399.53
2022-08-29T06:56:36.601Z,96431.19
2022-08-29T06:59:05.816Z,96428.94
2022-08-29T07:01:34.606Z,96428.78
2022-08-29T07:04:04.908Z,96427.97
2022-08-29T07:06:34.539Z,96417.22
2022-08-29T07:09:02.732Z,96430.25
2022-08-29T07:11:32.312Z,96421.63
2022-08-29T07:14:02.622Z,96410.91
2022-08-29T07:16:32.167Z,96423.75
2022-08-29T07:19:00.374Z,96417.72
2022-08-29T07:21:28.631Z,96426.66
2022-08-29T07:23:58.963Z,96425.22
2022-08-29T07:26:29.911Z,96413.19
2022-08-29T07:29:00.278Z,96422.75
2022-08-29T07:31:32.322Z,96430.38
2022-08-29T07:34:02.685Z,96430.03
2022-08-29T07:36:31.636Z,96404.69
2022-08-29T07:39:01.940Z,96431.63
2022-08-29T07:41:30.131Z,96438.72
2022-08-29T07:43:58.923Z,96442.13
2022-08-29T07:46:27.376Z,96431.97
2022-08-29T07:48:55.846Z,96438.09
2022-08-29T07:51:24.891Z,96435.38
2022-08-29T07:53:56.783Z,96440.97
2022-08-29T07:56:32.435Z,96438.03
2022-08-29T07:59:04.320Z,96445.94
2022-08-29T08:01:32.841Z,96454.28
2022-08-29T08:04:05.855Z,96444.75
2022-08-29T08:06:36.797Z,96446.50
2022-08-29T08:09:06.251Z,96448.84
2022-08-29T08:11:37.341Z,96437.28
2022-08-29T08:14:05.953Z,96445.81
2022-08-29T08:16:34.745Z,96439.72
2022-08-29T08:19:03.053Z,96438.03
2022-08-29T08:21:31.504Z,96453.69
2022-08-29T08:23:59.701Z,96422.19
2022-08-29T08:26:28.027Z,96416.81
2022-08-29T08:28:57.676Z,96445.31
2022-08-29T08:31:26.007Z,96444.41
2022-08-29T08:33:54.514Z,96454.78
2022-08-29T08:36:24.922Z,96454.22
2022-08-29T08:38:54.395Z,96453.69
2022-08-29T08:41:36.314Z,96464.13
2022-08-29T08:44:08.411Z,96467.41
2022-08-29T08:46:40.069Z,96461.09
2022-08-29T08:49:11.615Z,96460.34
2022-08-29T08:51:44.879Z,96465.59
2022-08-29T08:54:19.443Z,96457.31
2022-08-29T08:56:49.430Z,96471.13
2022-08-29T08:59:21.188Z,96464.22
2022-08-29T09:02:06.606Z,96471.56
2022-08-29T09:04:48.461Z,96466.97
2022-08-29T09:07:36.930Z,96478.94
2022-08-29T09:10:16.578Z,96470.06
2022-08-29T09:12:51.759Z,96471.91
2022-08-29T09:15:24.007Z,96466.38
2022-08-29T09:17:56.006Z,96469.75
2022-08-29T09:20:32.837Z,96465.63
2022-08-29T09:23:02.440Z,96469.63
2022-08-29T09:25:31.204Z,96462.34
2022-08-29T09:28:00.160Z,96459.31
2022-08-29T09:30:31.388Z,96470.47
2022-08-29T09:33:02.774Z,96469.28
2022-08-29T09:35:37.114Z,96461.81
2022-08-29T09:38:07.598Z,96455.25
2022-08-29T09:40:46.519Z,96456.75
2022-08-29T09:43:20.470Z,96452.91
2022-08-29T09:46:10.273Z,96455.31
2022-08-29T09:48:40.087Z,96459.88
2022-08-29T09:51:14.264Z,96444.19
2022-08-29T09:53:43.378Z,96463.16
2022-08-29T09:56:17.092Z,96453.50
2022-08-29T09:58:45.287Z,96454.69
2022-08-29T10:01:19.810Z,96452.56
2022-08-29T10:03:59.348Z,96435.28
2022-08-29T10:06:31.547Z,96452.06
2022-08-29T10:09:09.874Z,96447.03
2022-08-29T10:11:42.118Z,96451.09
2022-08-29T10:14:14.629Z,96437.69
2022-08-29T10:16:52.639Z,96432.09
2022-08-29T10:19:33.140Z,96430.66
2022-08-29T10:22:07.660Z,96432.97
2022-08-29T10:24:55.355Z,96428.38
2022-08-29T10:27:32.729Z,96428.66
2022-08-29T10:30:08.362Z,96431.38
2022-08-29T10:32:52.844Z,96400.72
2022-08-29T10:35:30.182Z,96427.31
2022-08-29T10:38:01.134Z,96437.19
2022-08-29T10:40:34.715Z,96439.84
2022-08-29T10:43:16.940Z,96437.63
2022-08-29T10:45:55.435Z,96347.44
2022-08-29T10:48:30.329Z,96430.72
2022-08-29T10:51:10.800Z,96416.47
2022-08-29T10:53:42.220Z,96435.88
2022-08-29T10:56:17.314Z,96434.59
2022-08-29T10:58:52.473Z,96443.13
2022-08-29T11:01:24.471Z,96334.75
2022-08-29T11:04:04.679Z,96435.69
2022-08-29T11:09:09.496Z,96443.06
2022-08-29T11:11:39.580Z,96433.28
2022-08-29T11:14:13.492Z,96435.88
2022-08-29T11:16:44.478Z,96435.91
2022-08-29T11:19:22.280Z,96426.84
2022-08-29T11:21:56.748Z,96433.38
2022-08-29T11:24:30.617Z,96432.09
2022-08-29T11:27:07.318Z,96436.47
2022-08-29T11:29:40.653Z,96432.34
2022-08-29T11:32:13.882Z,96427.75
2022-08-29T11:34:49.140Z,96426.91
2022-08-29T11:37:30.097Z,96426.72
2022-08-29T11:40:00.877Z,96421.75
2022-08-29T11:43:01.793Z,96433.41
2022-08-29T11:45:29.620Z,96422.97
2022-08-29T11:48:20.848Z,96431.91
2022-08-29T11:50:50.407Z,96404.66
2022-08-29T11:53:33.956Z,96432.25
2022-08-29T11:56:27.878Z,96428.09
2022-08-29T11:58:57.279Z,96411.63
2022-08-29T12:01:58.689Z,96436.59
2022-08-29T12:04:55.919Z,96433.00
2022-08-29T12:07:35.821Z,96429.16
2022-08-29T12:10:06.581Z,96426.16
2022-08-29T12:12:45.388Z,96430.34
2022-08-29T12:15:43.522Z,96427.22
2022-08-29T12:18:52.476Z,96422.31
2022-08-29T12:21:47.328Z,96433.06
2022-08-29T12:24:55.210Z,96427.19
2022-08-29T12:28:02.055Z,96427.09
2022-08-29T12:30:34.759Z,96423.03
2022-08-29T12:33:14.495Z,96423.47
2022-08-29T12:36:03.595Z,96420.03
2022-08-29T12:38:42.109Z,96426.91
2022-08-29T12:41:28.856Z,96421.09
2022-08-29T12:43:59.874Z,96403.00
2022-08-29T12:46:35.886Z,96412.47
2022-08-29T12:49:08.225Z,96415.00
2022-08-29T12:51:38.825Z,96405.63
2022-08-29T12:54:08.141Z,96415.00
2022-08-29T12:56:39.593Z,96408.38
2022-08-29T12:59:07.949Z,96410.31
2022-08-29T13:01:38.960Z,96399.97
2022-08-29T13:04:15.117Z,96391.41
2022-08-29T13:06:53.619Z,96398.03
2022-08-29T13:09:29.928Z,96388.31
2022-08-29T13:12:16.134Z,96387.03
2022-08-29T13:14:49.093Z,96389.75
2022-08-29T13:17:18.291Z,96374.16
2022-08-29T13:20:19.562Z,96381.13
2022-08-29T13:22:48.329Z,96369.47
2022-08-29T13:25:19.419Z,96369.31
2022-08-29T13:27:49.659Z,96357.69
2022-08-29T13:30:23.446Z,96369.44
2022-08-29T13:32:52.508Z,96369.97
2022-08-29T13:35:31.425Z,96365.34
2022-08-29T13:38:19.846Z,96373.69
2022-08-29T13:40:49.389Z,96360.50
2022-08-29T13:43:35.834Z,96354.00
2022-08-29T13:46:15.573Z,96353.13
2022-08-29T13:48:44.465Z,96346.25
2022-08-29T13:51:13.416Z,96353.38
2022-08-29T13:53:44.708Z,96336.22
2022-08-29T13:56:22.599Z,96347.06
2022-08-29T13:58:52.427Z,96336.19
2022-08-29T14:01:30.881Z,96332.59
2022-08-29T14:04:36.826Z,96334.41
2022-08-29T14:07:07.038Z,96299.03
2022-08-29T14:09:59.877Z,96323.63
2022-08-29T14:12:50.810Z,96323.81
2022-08-29T14:15:41.444Z,96335.22
2022-08-29T14:18:37.906Z,96325.28
2022-08-29T14:21:06.837Z,96324.53
2022-08-29T14:23:35.898Z,96329.53
2022-08-29T14:26:04.079Z,96325.47
2022-08-29T14:28:35.710Z,96324.88
2022-08-29T14:31:07.966Z,96292.41
2022-08-29T14:33:36.169Z,96322.66
2022-08-29T14:36:04.762Z,96320.22
2022-08-29T14:38:33.404Z,96317.63
2022-08-29T14:41:01.703Z,96317.63
2022-08-29T14:43:30.745Z,96275.25
2022-08-29T14:45:59.026Z,96304.91
2022-08-29T14:48:30.132Z,96304.06
2022-08-29T14:50:58.372Z,96310.53
2022-08-29T14:53:26.973Z,96302.88
2022-08-29T14:56:07.087Z,96315.16
2022-08-29T14:58:36.961Z,96297.00
2022-08-29T15:01:05.389Z,96304.00
2022-08-29T15:03:35.040Z,96299.16
2022-08-29T15:06:03.991Z,96309.03
2022-08-29T15:08:36.424Z,96308.44
2022-08-29T15:11:05.723Z,96306.06
2022-08-29T15:13:35.023Z,96300.88
2022-08-29T15:16:03.855Z,96305.16
2022-08-29T15:19:22.390Z,96306.13
2022-08-29T15:21:22.325Z,96302.84
2022-08-29T15:23:50.510Z,96295.81
2022-08-29T15:26:18.665Z,96294.69
2022-08-29T15:28:47.459Z,96281.53
2022-08-29T15:31:16.267Z,96297.56
2022-08-29T15:33:44.505Z,96265.59
2022-08-29T15:36:12.722Z,96304.69
2022-08-29T15:38:43.128Z,96302.28
2022-08-29T15:41:11.489Z,96305.72
2022-08-29T15:43:40.063Z,96276.09
2022-08-29T15:46:08.819Z,96306.97
2022-08-29T15:48:37.923Z,96314.38
2022-08-29T15:51:08.567Z,96296.25
2022-08-29T15:53:38.125Z,96309.97
2022-08-29T15:56:08.830Z,96302.06
2022-08-29T15:58:37.810Z,96306.88
2022-08-29T16:01:06.297Z,96302.97
2022-08-29T16:03:35.361Z,96281.56
2022-08-29T16:06:04.736Z,96299.69
2022-08-29T16:08:32.914Z,96306.28
2022-08-29T16:11:01.620Z,96303.03
2022-08-29T16:13:31.261Z,96296.16
2022-08-29T16:15:59.700Z,96293.59
2022-08-29T16:18:28.011Z,96296.22
2022-08-29T16:20:56.915Z,96296.69
2022-08-29T16:23:25.252Z,96291.34
2022-08-29T16:25:53.612Z,96295.44
2022-08-29T16:28:21.963Z,96299.84
2022-08-29T16:30:51.630Z,96291.25
2022-08-29T16:33:19.785Z,96302.88
2022-08-29T16:35:47.917Z,96301.25
2022-08-29T16:38:16.295Z,96303.13
2022-08-29T16:40:44.756Z,96308.53
2022-08-29T16:43:12.911Z,96308.31
2022-08-29T16:45:41.129Z,96288.50
2022-08-29T16:48:15.591Z,96316.00
2022-08-29T16:50:45.307Z,96311.13
2022-08-29T16:53:14.419Z,96315.44
2022-08-29T16:55:42.730Z,96310.84
2022-08-29T16:58:28.523Z,96324.63
2022-08-29T17:00:56.631Z,96332.47
2022-08-29T17:03:26.798Z,96319.91
2022-08-29T17:05:55.971Z,96326.44
2022-08-29T17:08:23.536Z,96323.69
2022-08-29T17:10:50.779Z,96321.94
2022-08-29T17:13:17.762Z,96324.22
2022-08-29T17:15:44.707Z,96324.00
2022-08-29T17:18:12.995Z,96322.63
2022-08-29T17:20:43.982Z,96323.28
2022-08-29T17:23:15.763Z,96334.72
2022-08-29T17:25:43.872Z,96334.16
2022-08-29T17:28:27.728Z,96338.84
2022-08-29T17:30:57.524Z,96325.84
2022-08-29T17:33:26.569Z,96342.53
2022-08-29T17:35:56.108Z,96339.00
2022-08-29T17:38:24.415Z,96347.50
2022-08-29T17:40:57.263Z,96336.97
2022-08-29T17:43:26.492Z,96344.34
2022-08-29T17:45:54.919Z,96345.97
2022-08-29T17:48:23.259Z,96331.53
2022-08-29T17:50:52.592Z,96354.75
2022-08-29T17:53:23.038Z,96344.56
2022-08-29T17:55:51.192Z,96344.94
2022-08-29T17:58:20.399Z,96353.75
2022-08-29T18:00:49.633Z,96359.97
2022-08-29T18:03:19.726Z,96359.81
2022-08-29T18:05:49.449Z,96329.34
2022-08-29T18:08:18.941Z,96359.31
2022-08-29T18:10:49.214Z,96368.28
2022-08-29T18:13:21.424Z,96367.50
2022-08-29T18:15:53.863Z,96368.78
2022-08-29T18:18:22.546Z,96348.69
2022-08-29T18:20:50.874Z,96369.94
2022-08-29T18:23:19.428Z,96380.03
2022-08-29T18:25:49.035Z,96337.38
2022-08-29T18:28:17.429Z,96378.09
2022-08-29T18:30:45.915Z,96387.06
2022-08-29T18:33:14.512Z,96386.06
2022-08-29T18:35:42.732Z,96388.84
2022-08-29T18:38:10.865Z,96383.47
2022-08-29T18:40:40.087Z,96390.13
2022-08-29T18:43:11.216Z,96359.63
2022-08-29T18:45:40.080Z,96399.88
2022-08-29T18:48:08.822Z,96407.00
2022-08-29T18:50:37.227Z,96408.63
2022-08-29T18:53:07.767Z,96414.31
2022-08-29T18:55:35.932Z,96410.56
2022-08-29T18:58:04.594Z,96413.34
2022-08-29T19:00:34.369Z,96410.25
2022-08-29T19:03:04.070Z,96405.88
2022-08-29T19:05:35.276Z,96419.97
2022-08-29T19:08:03.656Z,96424.53
2022-08-29T19:10:32.946Z,96423.72
2022-08-29T19:13:01.327Z,96429.91
2022-08-29T19:15:30.843Z,96400.31
2022-08-29T19:18:00.644Z,96418.34
2022-08-29T19:20:47.028Z,96388.75
2022-08-29T19:23:16.138Z,96424.84
2022-08-29T19:25:45.618Z,96419.97
2022-08-29T19:28:14.181Z,96403.69
2022-08-29T19:30:43.196Z,96416.63
2022-08-29T19:33:15.239Z,96420.66
2022-08-29T19:35:43.606Z,96416.72
2022-08-29T19:38:11.751Z,96419.81
2022-08-29T19:40:40.118Z,96417.38
2022-08-29T19:43:13.861Z,96424.38
2022-08-29T19:45:44.262Z,96416.41
2022-08-29T19:48:15.434Z,96428.91
2022-08-29T19:50:47.519Z,96423.41
2022-08-29T19:53:24.596Z,96421.94
2022-08-29T19:55:56.447Z,96429.69
2022-08-29T19:58:31.492Z,96415.28
2022-08-29T20:01:01.629Z,96388.50
2022-08-29T20:03:32.948Z,96418.97
2022-08-29T20:06:06.171Z,96432.88
2022-08-29T20:08:37.741Z,96420.63
2022-08-29T20:11:06.531Z,96426.09
2022-08-29T20:13:36.341Z,96432.25
2022-08-29T20:16:11.978Z,96429.78
2022-08-29T20:18:42.404Z,96427.53
2022-08-29T20:21:12.889Z,96424.56
2022-08-29T20:23:49.598Z,96425.56
2022-08-29T20:26:19.283Z,96429.72
2022-08-29T20:28:48.496Z,96433.50
2022-08-29T20:31:16.813Z,96433.50
2022-08-29T20:33:47.610Z,96430.78
2022-08-29T20:36:33.995Z,96431.88
2022-08-29T20:39:07.504Z,96429.75
2022-08-29T20:41:35.707Z,96440.28
2022-08-29T20:44:07.623Z,96434.44
2022-08-29T20:46:39.614Z,96443.50
2022-08-29T20:49:09.700Z,96437.19
2022-08-29T20:51:39.411Z,96439.31
2022-08-29T20:54:08.743Z,96451.88
2022-08-29T20:56:36.846Z,96451.47
2022-08-29T20:59:05.007Z,96449.88
2022-08-29T21:01:34.678Z,96438.31
2022-08-29T21:04:21.143Z,96448.72
2022-08-29T21:06:55.232Z,96449.13
2022-08-29T21:09:23.549Z,96451.41
2022-08-29T21:11:51.881Z,96449.81
2022-08-29T21:14:22.431Z,96455.31
2022-08-29T21:16:51.205Z,96458.81
2022-08-29T21:19:19.863Z,96457.31
2022-08-29T21:21:48.547Z,96456.72
2022-08-29T21:24:18.409Z,96426.78
2022-08-29T21:26:46.509Z,96452.06
2022-08-29T21:29:14.755Z,96449.13
2022-08-29T21:31:42.955Z,96470.50
2022-08-29T21:34:12.158Z,96453.34
2022-08-29T21:36:40.682Z,96458.28
2022-08-29T21:39:11.171Z,96464.94
2022-08-29T21:41:42.703Z,96469.19
2022-08-29T21:44:12.038Z,96461.31
2022-08-29T21:46:43.077Z,96451.25
2022-08-29T21:49:13.761Z,96456.31
2022-08-29T21:51:42.036Z,96461.34
2022-08-29T21:54:13.346Z,96459.91
2022-08-29T21:56:43.847Z,96450.47
2022-08-29T21:59:12.893Z,96455.34
2022-08-29T22:01:45.516Z,96456.16
2022-08-29T22:04:27.948Z,96448.53
2022-08-29T22:06:57.871Z,96457.94
2022-08-29T22:09:26.507Z,96452.59
2022-08-29T22:11:56.194Z,96457.66
2022-08-29T22:14:44.852Z,96422.38
2022-08-29T22:17:12.052Z,96420.59
2022-08-29T22:19:40.215Z,96458.00
2022-08-29T22:22:09.091Z,96447.63
2022-08-29T22:24:37.993Z,96447.28
2022-08-29T22:27:07.921Z,96448.56
2022-08-29T22:29:37.111Z,96443.88
2022-08-29T22:32:05.901Z,96448.22
2022-08-29T22:34:34.267Z,96447.84
2022-08-29T22:37:02.475Z,96451.25
2022-08-29T22:39:30.607Z,96448.78
2022-08-29T22:41:58.819Z,96445.50
2022-08-29T22:45:02.846Z,96461.88
2022-08-29T22:47:17.637Z,96458.81
2022-08-29T22:49:45.950Z,96447.19
2022-08-29T22:52:14.131Z,96438.75
2022-08-29T22:54:42.363Z,96452.06
2022-08-29T22:57:12.803Z,96443.09
2022-08-29T22:59:43.245Z,96448.00
2022-08-29T23:02:12.551Z,96444.59
2022-08-29T23:04:41.278Z,96452.69
2022-08-29T23:07:11.801Z,96446.47
2022-08-29T23:09:40.489Z,96452.50
2022-08-29T23:12:09.215Z,96439.66
2022-08-29T23:14:39.548Z,96439.03
2022-08-29T23:17:10.204Z,96442.63
2022-08-29T23:19:41.027Z,96440.47
2022-08-29T23:22:10.301Z,96449.06
2022-08-29T23:24:39.160Z,96442.25
2022-08-29T23:27:09.511Z,96429.25
2022-08-29T23:29:42.048Z,96449.75
2022-08-29T23:32:11.766Z,96441.31
2022-08-29T23:34:39.883Z,96444.84
2022-08-29T23:37:07.990Z,96437.69
2022-08-29T23:39:36.193Z,96445.78
2022-08-29T23:42:04.414Z,96440.25
2022-08-29T23:44:32.606Z,96444.91
2022-08-29T23:47:00.804Z,96432.31
2022-08-29T23:49:30.343Z,96427.25
2022-08-29T23:51:59.218Z,96421.97
2022-08-29T23:54:27.740Z,96431.25
2022-08-29T23:56:55.852Z,96425.41
2022-08-29T23:59:41.701Z,96432.81
